Bookmark and Share
Track history (hours):
 

Callsign KS088 (name unknown)

Last reported at 2012-Oct-09 18:00 UTC. Time now 2014-Apr-20 05:47 UTC.
Position S 16°48' W 151°24'.
Warning: this ship's position is years out of date!

Wind from 110 at 16 knots

Barometer 1015.9 mb
Air temperature 25.6 ° C
Water temperature 26.6 ° C

NotesDate/timePositionNaut miles runAvg speedWind from/ knotsBaromVisibWave heightAir tempDewpointWater temp
2012-Oct-09 18:00S 16°48' W 151°24'0 0.0 110 / 161015.9 25.6 26.6
2012-Oct-08 19:00S 16°48' W 151°24'0 0.0 130 / 131015.9 25.2 26.6
2012-Oct-08 18:00S 16°48' W 151°24'0 0.0 110 / 111015.6 26.1 26.6
2012-Oct-08 17:00S 16°48' W 151°24'0 0.0 120 / 141014.8 25.9 26.7
2012-Oct-08 16:00S 16°48' W 151°24'0 0.0 110 / 111013.9 25.8 26.6
2012-Oct-08 15:00S 16°48' W 151°24'0 0.0 090 / 71013.0 25.1 26.7
2012-Oct-08 14:00S 16°48' W 151°24'0 0.0 140 / 121012.6 25.2 26.6
2012-Oct-08 13:00S 16°48' W 151°24'0 0.0 110 / 101012.7 25.8 26.7
2012-Oct-08 12:00S 16°48' W 151°24'0 0.0 240 / 71013.1 23.5 26.7
2012-Oct-08 11:00S 16°48' W 151°24'0 0.0 240 / 71013.3 23.5 26.8
2012-Oct-08 10:00S 16°48' W 151°24'0 0.0 230 / 61014.2 24.0 26.6
2012-Oct-08 09:00S 16°48' W 151°24'0 0.0 230 / 71014.5 24.0 26.7
2012-Oct-08 08:00S 16°48' W 151°24'0 0.0 220 / 51015.0 24.4 26.7
2012-Oct-08 07:00S 16°48' W 151°24'0 0.0 160 / 41015.0 25.4 26.7
2012-Oct-08 06:00S 16°48' W 151°24'0 0.0 210 / 41014.4 24.9 26.7
2012-Oct-08 05:00S 16°48' W 151°24'0 0.0 190 / 31013.9 25.5 26.7
2012-Oct-08 04:00S 16°48' W 151°24'0 0.0 140 / 91013.1 25.9 26.8
2012-Oct-08 03:00S 16°48' W 151°24'0 0.0 120 / 141012.5 25.8 26.8
2012-Oct-08 02:00S 16°48' W 151°24'0 0.0 140 / 101012.1 26.3 26.9
2012-Oct-08 01:00S 16°48' W 151°24'0 0.0 130 / 111012.0 26.2 26.9
2012-Oct-08 00:00S 16°48' W 151°24'0 0.0 130 / 101012.1 26.2 26.9
2012-Oct-07 23:00S 16°48' W 151°24'0 0.0 130 / 81012.4 26.1 26.7
2012-Oct-07 22:00S 16°48' W 151°24'0 0.0 130 / 91013.2 26.0 26.7
2012-Oct-07 21:00S 16°48' W 151°24'0 0.0 130 / 91013.9 26.1 26.6
2012-Oct-07 20:00S 16°48' W 151°24'0 0.0 210 / 41014.3 24.9 26.5
2012-Oct-07 19:00S 16°48' W 151°24'0 0.0 090 / 61014.3 26.2 26.6
2012-Oct-07 18:00S 16°48' W 151°24'0 0.0 100 / 71014.2 26.2 26.6
2012-Oct-07 17:00S 16°48' W 151°24'0 0.0 100 / 81013.6 26.1 26.6
2012-Oct-07 16:00S 16°48' W 151°24'0 0.0 140 / 21012.8 24.2 26.4
2012-Oct-07 14:00S 16°48' W 151°24'0 0.0 230 / 51011.8 24.3 26.5
2012-Oct-07 13:00S 16°48' W 151°24'0 0.0 080 / 31011.8 25.5 26.4
2012-Oct-07 12:00S 16°48' W 151°24'0 0.0 230 / 51012.3 23.8 26.4
2012-Oct-07 11:00S 16°48' W 151°24'0 0.0 240 / 71012.7 23.6 26.5
2012-Oct-07 10:00S 16°48' W 151°24'0 0.0 230 / 81013.2 23.4 26.6
2012-Oct-07 08:00S 16°48' W 151°24'0 0.0 210 / 51014.2 24.5 26.7
2012-Oct-07 07:00S 16°48' W 151°24'0 0.0 110 / 61013.9 25.9 26.7
2012-Oct-07 06:00S 16°48' W 151°24'0 0.0 220 / 31013.4 24.7 26.8
2012-Oct-07 05:00S 16°48' W 151°24'0 0.0 200 / 31012.9 25.6 26.8
2012-Oct-07 04:00S 16°48' W 151°24'0 0.0 110 / 81012.1 26.1 26.8
2012-Oct-07 03:00S 16°48' W 151°24'0 0.0 110 / 71011.3 26.2 26.9
2012-Oct-07 02:00S 16°48' W 151°24'6 6.0 110 / 61010.9 26.2 26.7
2012-Oct-07 01:00S 16°54' W 151°24'6 5.7 080 / 151010.4 25.8 26.8
2012-Oct-07 00:00S 16°54' W 151°30'0 0.0 110 / 111010.9 26.6 26.5
2012-Oct-06 23:00S 16°54' W 151°30'0 0.0 100 / 101011.8 26.5 26.2
2012-Oct-06 22:00S 16°54' W 151°30'0 0.0 100 / 61012.5 26.9 26.1
2012-Oct-06 21:00S 16°54' W 151°30'0 0.0 100 / 101013.0 26.4 26.1
2012-Oct-06 20:00S 16°54' W 151°30'0 0.0 110 / 101013.5 26.2 26.3
2012-Oct-06 19:00S 16°54' W 151°30'0 0.0 070 / 81013.9 26.1 26.1
2012-Oct-06 17:00S 16°54' W 151°30'0 0.0 060 / 61013.2 25.0 25.9
2012-Oct-06 16:00S 16°54' W 151°30'0 0.0 080 / 41012.6 24.6 25.9
2012-Oct-06 15:00S 16°54' W 151°30'0 0.0 060 / 81012.3 24.5 25.9
2012-Oct-06 13:00S 16°54' W 151°30'0 0.0 070 / 61011.9 24.6 26.0
2012-Oct-06 12:00S 16°54' W 151°30'0 0.0 070 / 41012.5 24.7 26.0
2012-Oct-06 11:00S 16°54' W 151°30'0 0.0 060 / 51013.1 24.8 26.1
2012-Oct-06 10:00S 16°54' W 151°30'0 0.0 050 / 11013.6 24.7 26.1
2012-Oct-06 09:00S 16°54' W 151°30'0 0.0 060 / 21014.2 24.8 26.1
2012-Oct-06 08:00S 16°54' W 151°30'0 0.0 070 / 71014.2 25.1 25.9
2012-Oct-06 07:00S 16°54' W 151°30'0 0.0 090 / 91013.7 25.3 26.0
2012-Oct-06 06:00S 16°54' W 151°30'0 0.0 090 / 71013.0 25.2 25.9
2012-Oct-06 05:00S 16°54' W 151°30'0 0.0 080 / 111012.3 25.1 26.0
2012-Oct-06 04:00S 16°54' W 151°30'0 0.0 090 / 111011.6 25.2 26.1
2012-Oct-06 03:00S 16°54' W 151°30'0 0.0 090 / 161011.2 25.6 26.1
2012-Oct-06 02:00S 16°54' W 151°30'0 0.0 090 / 181010.8 25.6 26.1
2012-Oct-06 01:00S 16°54' W 151°30'0 0.0 090 / 181010.9 25.6 26.2
2012-Oct-06 00:00S 16°54' W 151°30'0 0.0 100 / 161011.3 25.6 26.1
2012-Oct-05 23:00S 16°54' W 151°30'0 0.0 110 / 151012.2 25.5 26.1
2012-Oct-05 22:00S 16°54' W 151°30'0 0.0 100 / 161013.1 25.4 26.1
2012-Oct-05 21:00S 16°54' W 151°30'0 0.0 100 / 141014.0 25.6 25.8
2012-Oct-05 20:00S 16°54' W 151°30'0 0.0 100 / 121014.4 25.7 25.9
2012-Oct-05 19:00S 16°54' W 151°30'0 0.0 090 / 131014.8 25.9 25.9
2012-Oct-05 18:00S 16°54' W 151°30'0 0.0 070 / 131014.6 25.6 25.9
2012-Oct-05 17:00S 16°54' W 151°30'0 0.0 080 / 111014.1 25.1 25.9
2012-Oct-05 16:00S 16°54' W 151°30'0 0.0 100 / 111013.5 25.1 25.9
2012-Oct-05 15:00S 16°54' W 151°30'0 0.0 100 / 71013.3 24.9 25.8
2012-Oct-05 14:00S 16°54' W 151°30'0 0.0 120 / 81013.2 24.1 25.8
2012-Oct-05 13:00S 16°54' W 151°30'0 0.0 110 / 101013.2 24.5 25.9
2012-Oct-05 12:00S 16°54' W 151°30'0 0.0 090 / 111013.6 24.3 25.9
2012-Oct-05 11:00S 16°54' W 151°30'0 0.0 120 / 51014.0 25.0 25.9
2012-Oct-05 10:00S 16°54' W 151°30'0 0.0 090 / 91014.5 25.1 26.1
2012-Oct-05 09:00S 16°54' W 151°30'0 0.0 080 / 61015.0 25.1 26.1
2012-Oct-05 08:00S 16°54' W 151°30'0 0.0 090 / 91015.2 25.5 26.2
2012-Oct-05 07:00S 16°54' W 151°30'0 0.0 100 / 71014.7 25.4 26.3
2012-Oct-05 06:00S 16°54' W 151°30'0 0.0 100 / 91014.1 25.5 26.2
2012-Oct-05 05:00S 16°54' W 151°30'0 0.0 100 / 151013.8 25.6 26.3
2012-Oct-05 04:00S 16°54' W 151°30'0 0.0 100 / 111013.5 25.6 26.1
2012-Oct-05 03:00S 16°54' W 151°30'0 0.0 130 / 121012.8 25.6 26.1
2012-Oct-05 02:00S 16°54' W 151°30'0 0.0 100 / 131012.4 25.7 26.2
2012-Oct-05 01:00S 16°54' W 151°30'0 0.0 110 / 111012.4 25.9 26.2
2012-Oct-05 00:00S 16°54' W 151°30'0 0.0 110 / 161012.4 25.8 26.2
2012-Oct-04 23:00S 16°54' W 151°30'0 0.0 110 / 131012.9 26.1 26.2
2012-Oct-04 22:00S 16°54' W 151°30'0 0.0 100 / 131013.9 25.9 26.2
2012-Oct-04 21:00S 16°54' W 151°30'0 0.0 120 / 111014.7 25.9 26.2
2012-Oct-04 20:00S 16°54' W 151°30'0 0.0 110 / 121014.9 26.0 26.1
2012-Oct-04 19:00S 16°54' W 151°30'0 0.0 090 / 91015.6 26.2 26.1
2012-Oct-04 18:00S 16°54' W 151°30'0 0.0 110 / 161015.6 25.7 26.1
2012-Oct-04 17:00S 16°54' W 151°30'0 0.0 100 / 111015.3 25.5 26.0
2012-Oct-04 16:00S 16°54' W 151°30'0 0.0 110 / 111014.5 25.0 26.0
2012-Oct-04 15:00S 16°54' W 151°30'0 0.0 110 / 111014.1 24.8 26.1
2012-Oct-04 14:00S 16°54' W 151°30'0 0.0 090 / 31013.8 24.7 26.1
2012-Oct-04 13:00S 16°54' W 151°30'0 0.0 120 / 111013.5 24.7 26.1
2012-Oct-04 12:00S 16°54' W 151°30'0 0.0 110 / 81014.0 24.8 26.2
2012-Oct-04 11:00S 16°54' W 151°30'0 0.0 120 / 151014.6 24.9 26.2
2012-Oct-04 10:00S 16°54' W 151°30'0 0.0 110 / 61015.5 25.2 26.3
2012-Oct-04 09:00S 16°54' W 151°30'0 0.0 110 / 81015.6 25.2 26.3
2012-Oct-04 08:00S 16°54' W 151°30'0 0.0 110 / 41015.5 25.1 26.3
2012-Oct-04 07:00S 16°54' W 151°30'0 0.0 100 / 81014.6 25.1 26.4
2012-Oct-04 06:00S 16°54' W 151°30'0 0.0 100 / 61014.2 25.3 26.4
2012-Oct-04 05:00S 16°54' W 151°30'0 0.0 100 / 131013.7 25.3 26.5
2012-Oct-04 04:00S 16°54' W 151°30'0 0.0 100 / 61013.2 25.3 26.3
2012-Oct-04 03:00S 16°54' W 151°30'0 0.0 100 / 91012.6 25.8 26.3
2012-Oct-04 02:00S 16°54' W 151°30'0 0.0 090 / 161012.3 25.8 26.3
2012-Oct-04 01:00S 16°54' W 151°30'0 0.0 100 / 121012.4 25.8 26.3
2012-Oct-04 00:00S 16°54' W 151°30'0 0.0 120 / 101012.6 25.6 26.2
2012-Oct-03 23:00S 16°54' W 151°30'0 0.0 120 / 121013.1 25.6 26.2
2012-Oct-03 22:00S 16°54' W 151°30'0 0.0 110 / 121013.8 25.6 26.1
2012-Oct-03 21:00S 16°54' W 151°30'0 0.0 130 / 171014.4 25.4 26.1
2012-Oct-03 20:00S 16°54' W 151°30'0 0.0 120 / 161015.0 25.2 26.1
2012-Oct-03 19:00S 16°54' W 151°30'0 0.0 120 / 171015.3 25.1 26.0
2012-Oct-03 16:00S 16°54' W 151°30'0 0.0 100 / 51014.5 23.6 26.0
2012-Oct-03 15:00S 16°54' W 151°30'0 0.0 100 / 81013.5 23.5 26.0
2012-Oct-03 14:00S 16°54' W 151°30'0 0.0 110 / 101012.7 23.9 26.1
2012-Oct-03 13:00S 16°54' W 151°30'0 0.0 110 / 111012.5 24.0 26.1
2012-Oct-03 12:00S 16°54' W 151°30'0 0.0 100 / 141012.9 24.2 26.1
2012-Oct-03 11:00S 16°54' W 151°30'0 0.0 120 / 111013.3 23.8 26.2
2012-Oct-03 10:00S 16°54' W 151°30'0 0.0 110 / 101013.7 24.4 26.2
2012-Oct-03 09:00S 16°54' W 151°30'0 0.0 120 / 41014.2 23.9 26.2
2012-Oct-03 08:00S 16°54' W 151°30'0 0.0 120 / 111013.9 24.7 26.2
2012-Oct-03 07:00S 16°54' W 151°30'0 0.0 120 / 51013.7 25.3 26.3
2012-Oct-03 06:00S 16°54' W 151°30'0 0.0 100 / 71013.0 25.2 26.3
2012-Oct-03 05:00S 16°54' W 151°30'0 0.0 120 / 71012.6 25.3 26.4
2012-Oct-03 04:00S 16°54' W 151°30'0 0.0 110 / 101011.7 25.4 26.4
2012-Oct-03 03:00S 16°54' W 151°30'0 0.0 100 / 111011.1 25.8 26.5
2012-Oct-03 02:00S 16°54' W 151°30'0 0.0 100 / 91011.0 25.8 26.5
2012-Oct-03 01:00S 16°54' W 151°30'0 0.0 090 / 111010.9 25.7 26.3
2012-Oct-03 00:00S 16°54' W 151°30'0 0.0 110 / 101011.8 25.7 26.2
2012-Oct-02 23:00S 16°54' W 151°30'0 0.0 090 / 141012.5 25.6 26.2
2012-Oct-02 22:00S 16°54' W 151°30'0 0.0 100 / 171013.0 25.6 26.2
2012-Oct-02 21:00S 16°54' W 151°30'0 0.0 090 / 141014.0 25.6 26.2
2012-Oct-02 20:00S 16°54' W 151°30'0 0.0 100 / 111014.2 26.8 26.2
2012-Oct-02 19:00S 16°54' W 151°30'0 0.0 090 / 131014.2 25.4 26.1
2012-Oct-02 18:00S 16°54' W 151°30'0 0.0 100 / 131013.8 25.1 26.1
2012-Oct-02 17:00S 16°54' W 151°30'0 0.0 090 / 101013.4 24.2 26.1
2012-Oct-02 16:00S 16°54' W 151°30'0 0.0 090 / 81012.9 24.6 26.1
2012-Oct-02 15:00S 16°54' W 151°30'0 0.0 090 / 111011.9 24.4 26.1
2012-Oct-02 14:00S 16°54' W 151°30'0 0.0 130 / 61011.7 23.8 26.1
2012-Oct-02 13:00S 16°54' W 151°30'0 0.0 110 / 91011.7 23.2 26.0
2012-Oct-02 12:00S 16°54' W 151°30'0 0.0 110 / 51012.2 23.3 26.1
2012-Oct-02 11:00S 16°54' W 151°30'0 0.0 100 / 111012.6 23.1 26.2
2012-Oct-02 10:00S 16°54' W 151°30'0 0.0 080 / 71013.2 24.0 26.2
2012-Oct-02 09:00S 16°54' W 151°30'0 0.0 100 / 101013.4 24.7 26.2
2012-Oct-02 08:00S 16°54' W 151°30'0 0.0 100 / 161013.6 24.5 26.3
2012-Oct-02 07:00S 16°54' W 151°30'0 0.0 100 / 121013.4 24.4 26.3
2012-Oct-02 06:00S 16°54' W 151°30'0 0.0 090 / 141012.7 24.6 26.3
2012-Oct-02 05:00S 16°54' W 151°30'0 0.0 090 / 81012.6 24.8 26.3
2012-Oct-02 04:00S 16°54' W 151°30'0 0.0 110 / 61012.1 24.5 26.2
2012-Oct-02 03:00S 16°54' W 151°30'0 0.0 120 / 81011.7 24.9 26.2
2012-Oct-02 02:00S 16°54' W 151°30'0 0.0 080 / 71011.1 25.9 26.2
2012-Oct-02 01:00S 16°54' W 151°30'0 0.0 130 / 121010.9 25.1 26.2
2012-Oct-02 00:00S 16°54' W 151°30'0 0.0 120 / 81011.5 24.9 26.1
2012-Oct-01 23:00S 16°54' W 151°30'0 0.0 100 / 61012.1 25.2 26.0
2012-Oct-01 22:00S 16°54' W 151°30'0 0.0 110 / 71012.8 25.2 26.0
2012-Oct-01 21:00S 16°54' W 151°30'0 0.0 120 / 101013.4 25.0 26.0
2012-Oct-01 20:00S 16°54' W 151°30'0 0.0 090 / 81013.7 25.0 26.0
2012-Oct-01 19:00S 16°54' W 151°30'   090 / 101013.7 24.6 26.0

Dump ship's entire track history

sailing weather and tide predictions

Ship Status Report: callsign KS088